createdAt,value
2023-04-15T00:00:58.785Z,12.96
2023-04-15T00:03:25.644Z,13.19
2023-04-15T00:05:52.431Z,13.29
2023-04-15T00:08:19.059Z,13.27
2023-04-15T00:10:45.724Z,13.38
2023-04-15T00:13:12.445Z,13.36
2023-04-15T00:15:39.125Z,13.43
2023-04-15T00:18:07.499Z,13.37
2023-04-15T00:20:34.225Z,13.37
2023-04-15T00:23:02.369Z,13.37
2023-04-15T00:25:28.976Z,13.40
2023-04-15T00:27:55.570Z,13.45
2023-04-15T00:30:22.521Z,13.33
2023-04-15T00:32:49.150Z,13.35
2023-04-15T00:35:17.254Z,13.35
2023-04-15T00:37:45.933Z,13.39
2023-04-15T00:40:13.894Z,13.47
2023-04-15T00:42:41.046Z,13.61
2023-04-15T00:45:08.888Z,13.75
2023-04-15T00:47:37.669Z,13.77
2023-04-15T00:50:07.825Z,13.70
2023-04-15T00:52:35.870Z,13.73
2023-04-15T00:55:03.487Z,13.71
2023-04-15T00:57:32.931Z,13.72
2023-04-15T01:00:00.792Z,13.73
2023-04-15T01:02:27.645Z,13.51
2023-04-15T01:04:54.566Z,13.31
2023-04-15T01:07:21.226Z,13.54
2023-04-15T01:09:49.319Z,13.58
2023-04-15T01:12:17.887Z,13.53
2023-04-15T01:14:44.597Z,13.65
2023-04-15T01:17:11.301Z,13.59
2023-04-15T01:19:38.299Z,13.54
2023-04-15T01:22:04.999Z,13.60
2023-04-15T01:24:32.628Z,13.44
2023-04-15T01:27:00.997Z,13.44
2023-04-15T01:29:27.773Z,13.36
2023-04-15T01:31:55.854Z,13.25
2023-04-15T01:34:22.834Z,13.18
2023-04-15T01:36:49.520Z,13.34
2023-04-15T01:39:16.176Z,13.37
2023-04-15T01:41:42.742Z,13.30
2023-04-15T01:44:10.877Z,13.19
2023-04-15T01:46:37.967Z,13.12
2023-04-15T01:49:04.738Z,13.14
2023-04-15T01:51:31.444Z,13.05
2023-04-15T01:53:58.002Z,12.94
2023-04-15T01:56:24.793Z,12.95
2023-04-15T01:58:51.406Z,12.87
2023-04-15T02:01:19.639Z,12.99
2023-04-15T02:03:46.803Z,12.86
2023-04-15T02:06:13.416Z,12.85
2023-04-15T02:08:40.042Z,12.99
2023-04-15T02:11:06.624Z,12.85
2023-04-15T02:13:33.233Z,12.77
2023-04-15T02:16:00.209Z,12.82
2023-04-15T02:18:32.326Z,12.97
2023-04-15T02:20:59.188Z,12.83
2023-04-15T02:23:26.018Z,12.76
2023-04-15T02:25:53.329Z,12.81
2023-04-15T02:28:21.026Z,12.93
2023-04-15T02:30:48.385Z,12.99
2023-04-15T02:33:14.994Z,12.98
2023-04-15T02:35:45.005Z,13.17
2023-04-15T02:38:11.610Z,13.08
2023-04-15T02:40:38.177Z,13.14
2023-04-15T02:43:04.815Z,13.09
2023-04-15T02:45:31.459Z,13.03
2023-04-15T02:47:58.333Z,13.06
2023-04-15T02:50:25.060Z,12.97
2023-04-15T02:52:53.125Z,12.94
2023-04-15T02:55:19.884Z,12.83
2023-04-15T02:57:47.596Z,12.87
2023-04-15T03:00:14.655Z,12.81
2023-04-15T03:02:41.465Z,12.74
2023-04-15T03:05:12.059Z,12.69
2023-04-15T03:07:39.871Z,12.69
2023-04-15T03:10:09.146Z,12.64
2023-04-15T03:12:35.746Z,12.58
2023-04-15T03:15:02.349Z,12.64
2023-04-15T03:17:28.985Z,12.65
2023-04-15T03:19:55.669Z,12.64
2023-04-15T03:22:22.287Z,12.66
2023-04-15T03:24:48.852Z,12.52
2023-04-15T03:27:16.808Z,12.46
2023-04-15T03:29:43.411Z,12.37
2023-04-15T03:32:10.066Z,12.32
2023-04-15T03:34:37.846Z,12.41
2023-04-15T03:37:05.246Z,12.32
2023-04-15T03:39:31.857Z,12.13
2023-04-15T03:41:59.180Z,12.10
2023-04-15T03:44:27.835Z,11.94
2023-04-15T03:46:54.534Z,11.79
2023-04-15T03:49:21.147Z,11.67
2023-04-15T03:51:47.729Z,11.60
2023-04-15T03:54:14.410Z,11.59
2023-04-15T03:56:41.037Z,11.73
2023-04-15T03:59:07.691Z,11.73
2023-04-15T04:01:35.695Z,11.68
2023-04-15T04:04:02.531Z,11.58
2023-04-15T04:06:29.195Z,11.39
2023-04-15T04:08:55.990Z,11.27
2023-04-15T04:11:22.623Z,11.23
2023-04-15T04:13:49.244Z,11.14
2023-04-15T04:16:16.455Z,11.14
2023-04-15T04:18:44.587Z,11.31
2023-04-15T04:21:11.469Z,11.24
2023-04-15T04:23:38.184Z,11.12
2023-04-15T04:26:04.904Z,11.06
2023-04-15T04:28:31.533Z,11.01
2023-04-15T04:30:58.297Z,11.00
2023-04-15T04:33:25.058Z,11.09
2023-04-15T04:35:53.055Z,11.03
2023-04-15T04:38:19.880Z,11.27
2023-04-15T04:40:46.464Z,11.28
2023-04-15T04:43:13.112Z,11.34
2023-04-15T04:45:39.793Z,11.24
2023-04-15T04:48:06.616Z,11.11
2023-04-15T04:50:33.369Z,11.21
2023-04-15T04:53:01.822Z,11.37
2023-04-15T04:55:28.454Z,11.43
2023-04-15T04:57:55.088Z,11.55
2023-04-15T05:00:21.979Z,11.56
2023-04-15T05:02:48.885Z,11.51
2023-04-15T05:05:15.577Z,11.29
2023-04-15T05:07:44.274Z,11.25
2023-04-15T05:10:12.340Z,11.23
2023-04-15T05:12:39.014Z,11.08
2023-04-15T05:15:09.034Z,10.87
2023-04-15T05:17:35.831Z,11.02
2023-04-15T05:20:02.523Z,10.99
2023-04-15T05:22:29.419Z,10.92
2023-04-15T05:24:56.058Z,10.93
2023-04-15T05:27:24.009Z,10.94
2023-04-15T05:29:50.579Z,10.82
2023-04-15T05:32:17.393Z,10.68
2023-04-15T05:34:43.990Z,10.61
2023-04-15T05:37:10.738Z,10.69
2023-04-15T05:39:38.535Z,10.83
2023-04-15T05:42:05.242Z,10.87
2023-04-15T05:44:33.313Z,10.75
2023-04-15T05:46:59.952Z,10.73
2023-04-15T05:49:26.551Z,10.69
2023-04-15T05:51:53.125Z,10.96
2023-04-15T05:54:20.359Z,10.99
2023-04-15T05:56:47.126Z,11.18
2023-04-15T05:59:13.698Z,11.08
2023-04-15T06:01:41.943Z,11.19
2023-04-15T06:04:08.740Z,11.23
2023-04-15T06:06:35.501Z,11.30
2023-04-15T06:09:02.428Z,11.17
2023-04-15T06:11:29.297Z,11.30
2023-04-15T06:13:56.223Z,11.30
2023-04-15T06:16:22.841Z,11.56
2023-04-15T06:18:50.948Z,11.38
2023-04-15T06:21:17.644Z,11.43
2023-04-15T06:23:44.640Z,11.32
2023-04-15T06:26:11.248Z,11.43
2023-04-15T06:28:37.832Z,11.48
2023-04-15T06:31:04.610Z,11.48
2023-04-15T06:33:31.919Z,11.88
2023-04-15T06:35:59.946Z,12.16
2023-04-15T06:38:26.535Z,12.12
2023-04-15T06:40:53.320Z,11.72
2023-04-15T06:43:19.914Z,11.71
2023-04-15T06:45:46.483Z,12.14
2023-04-15T06:48:13.167Z,12.61
2023-04-15T06:50:40.157Z,12.87
2023-04-15T06:53:08.319Z,13.25
2023-04-15T06:55:35.211Z,13.43
2023-04-15T06:58:01.779Z,13.73
2023-04-15T07:00:28.509Z,14.17
2023-04-15T07:02:55.492Z,14.41
2023-04-15T07:05:22.132Z,14.97
2023-04-15T07:07:48.734Z,15.20
2023-04-15T07:10:17.144Z,15.35
2023-04-15T07:12:43.811Z,14.77
2023-04-15T07:15:11.321Z,14.66
2023-04-15T07:17:37.973Z,14.56
2023-04-15T07:20:05.348Z,14.77
2023-04-15T07:22:32.029Z,15.10
2023-04-15T07:24:58.677Z,15.48
2023-04-15T07:27:26.798Z,15.47
2023-04-15T07:29:53.470Z,15.64
2023-04-15T07:32:20.332Z,16.32
2023-04-15T07:34:46.924Z,17.27
2023-04-15T07:37:13.728Z,18.05
2023-04-15T07:39:40.379Z,18.41
2023-04-15T07:42:07.022Z,18.58
2023-04-15T07:44:34.999Z,18.15
2023-04-15T07:47:02.781Z,17.57
2023-04-15T07:49:29.688Z,17.41
2023-04-15T07:51:56.343Z,17.89
2023-04-15T07:54:25.319Z,18.46
2023-04-15T07:56:52.165Z,19.35
2023-04-15T07:59:18.874Z,19.13
2023-04-15T08:01:46.961Z,19.58
2023-04-15T08:04:13.701Z,19.83
2023-04-15T08:06:40.460Z,19.54
2023-04-15T08:09:07.450Z,19.41
2023-04-15T08:11:36.161Z,19.31
2023-04-15T08:14:02.869Z,19.48
2023-04-15T08:16:29.644Z,19.98
2023-04-15T08:18:58.058Z,19.23
2023-04-15T08:21:24.885Z,19.44
2023-04-15T08:23:52.899Z,19.48
2023-04-15T08:26:20.457Z,19.98
2023-04-15T08:28:47.181Z,20.09
2023-04-15T08:31:16.346Z,19.90
2023-04-15T08:33:43.099Z,19.72
2023-04-15T08:36:11.112Z,19.92
2023-04-15T08:38:37.919Z,20.08
2023-04-15T08:41:11.840Z,19.87
2023-04-15T08:43:46.713Z,20.12
2023-04-15T08:46:13.582Z,21.03
2023-04-15T08:48:40.315Z,21.48
2023-04-15T08:51:07.409Z,21.79
2023-04-15T08:53:35.824Z,21.40
2023-04-15T08:56:05.222Z,21.77
2023-04-15T08:58:32.381Z,22.24
2023-04-15T09:00:59.296Z,21.86
2023-04-15T09:03:26.505Z,21.55
2023-04-15T09:05:54.817Z,22.41
2023-04-15T09:08:21.467Z,22.62
2023-04-15T09:10:49.823Z,22.80
2023-04-15T09:13:19.571Z,22.63
2023-04-15T09:15:46.468Z,22.70
2023-04-15T09:18:26.843Z,23.09
2023-04-15T09:20:55.858Z,22.87
2023-04-15T09:23:22.912Z,22.99
2023-04-15T09:25:51.079Z,22.29
2023-04-15T09:28:24.774Z,21.32
2023-04-15T09:30:52.886Z,20.81
2023-04-15T09:33:19.544Z,20.10
2023-04-15T09:35:57.423Z,20.21
2023-04-15T09:38:24.067Z,21.43
2023-04-15T09:40:52.236Z,22.85
2023-04-15T09:43:18.981Z,24.13
2023-04-15T09:45:49.248Z,24.45
2023-04-15T09:48:18.325Z,24.18
2023-04-15T09:50:44.979Z,24.09
2023-04-15T09:53:11.945Z,23.90
2023-04-15T09:55:39.745Z,23.62
2023-04-15T09:58:18.029Z,22.37
2023-04-15T10:00:47.208Z,22.12
2023-04-15T10:03:19.021Z,21.34
2023-04-15T10:05:48.196Z,20.93
2023-04-15T10:08:15.999Z,20.90
2023-04-15T10:10:42.904Z,21.44
2023-04-15T10:13:13.129Z,22.36
2023-04-15T10:15:43.817Z,23.85
2023-04-15T10:18:13.155Z,24.37
2023-04-15T10:20:42.263Z,24.83
2023-04-15T10:23:11.001Z,24.88
2023-04-15T10:25:38.999Z,25.40
2023-04-15T10:28:07.299Z,25.80
2023-04-15T10:30:36.657Z,26.35
2023-04-15T10:33:04.114Z,25.80
2023-04-15T10:35:32.357Z,24.02
2023-04-15T10:37:58.911Z,23.37
2023-04-15T10:40:27.784Z,22.31
2023-04-15T10:42:55.427Z,21.42
2023-04-15T10:45:22.512Z,20.95
2023-04-15T10:47:55.609Z,21.92
2023-04-15T10:50:22.541Z,22.31
2023-04-15T10:52:51.558Z,23.75
2023-04-15T10:55:21.320Z,22.99
2023-04-15T10:57:52.704Z,22.82
2023-04-15T11:00:26.260Z,23.17
2023-04-15T11:02:56.776Z,23.08
2023-04-15T11:05:44.405Z,22.48
2023-04-15T11:08:12.893Z,22.82
2023-04-15T11:10:54.393Z,23.83
2023-04-15T11:13:25.672Z,24.40
2023-04-15T11:15:56.891Z,24.41
2023-04-15T11:18:27.187Z,24.07
2023-04-15T11:20:56.590Z,23.57
2023-04-15T11:23:32.259Z,22.81
2023-04-15T11:26:00.452Z,21.64
2023-04-15T11:28:28.581Z,21.41
2023-04-15T11:30:55.964Z,21.58
2023-04-15T11:33:23.377Z,21.78
2023-04-15T11:35:53.175Z,21.90
2023-04-15T11:38:20.230Z,21.25
2023-04-15T11:40:47.349Z,21.48
2023-04-15T11:43:16.066Z,21.20
2023-04-15T11:45:51.210Z,21.63
2023-04-15T11:48:19.029Z,22.01
2023-04-15T11:50:46.616Z,21.89
2023-04-15T11:53:14.702Z,21.97
2023-04-15T11:55:43.205Z,21.93
2023-04-15T11:58:10.809Z,21.90
2023-04-15T12:00:38.499Z,22.21
2023-04-15T12:03:19.486Z,22.21
2023-04-15T12:06:10.251Z,22.06
2023-04-15T12:09:14.466Z,21.77
2023-04-15T12:11:45.926Z,22.01
2023-04-15T12:14:18.533Z,21.60
2023-04-15T12:16:48.656Z,21.06
2023-04-15T12:19:23.567Z,21.24
2023-04-15T12:21:50.699Z,20.87
2023-04-15T12:24:21.609Z,21.11
2023-04-15T12:26:49.738Z,21.37
2023-04-15T12:29:17.448Z,21.74
2023-04-15T12:31:48.921Z,22.01
2023-04-15T12:34:15.527Z,22.09
2023-04-15T12:36:42.460Z,22.21
2023-04-15T12:39:09.479Z,22.53
2023-04-15T12:41:37.636Z,22.00
2023-04-15T12:44:04.470Z,22.01
2023-04-15T12:46:31.461Z,22.27
2023-04-15T12:48:58.533Z,22.28
2023-04-15T12:51:25.180Z,22.83
2023-04-15T12:53:51.791Z,22.74
2023-04-15T12:56:18.347Z,23.61
2023-04-15T12:58:46.287Z,23.63
2023-04-15T13:01:12.978Z,23.65
2023-04-15T13:03:39.704Z,23.35
2023-04-15T13:06:06.412Z,23.34
2023-04-15T13:08:33.144Z,23.37
2023-04-15T13:10:59.858Z,23.65
2023-04-15T13:13:26.819Z,24.60
2023-04-15T13:15:54.857Z,25.09
2023-04-15T13:18:21.486Z,24.77
2023-04-15T13:20:48.405Z,24.04
2023-04-15T13:23:15.122Z,24.67
2023-04-15T13:25:41.753Z,25.21
2023-04-15T13:28:08.468Z,25.46
2023-04-15T13:30:37.631Z,25.37
2023-04-15T13:33:05.890Z,24.89
2023-04-15T13:35:32.822Z,24.84
2023-04-15T13:37:59.402Z,23.37
2023-04-15T13:40:26.205Z,22.70
2023-04-15T13:42:52.773Z,22.52
2023-04-15T13:45:19.469Z,22.51
2023-04-15T13:47:46.171Z,22.53
2023-04-15T13:50:14.140Z,22.56
2023-04-15T13:52:40.779Z,22.85
2023-04-15T13:55:18.814Z,23.05
2023-04-15T13:57:47.973Z,23.04
2023-04-15T14:00:15.238Z,23.34
2023-04-15T14:02:42.024Z,23.58
2023-04-15T14:05:09.643Z,23.95
2023-04-15T14:07:37.844Z,23.89
2023-04-15T14:10:05.306Z,23.80
2023-04-15T14:12:31.939Z,23.51
2023-04-15T14:14:58.616Z,23.00
2023-04-15T14:17:25.285Z,22.65
2023-04-15T14:19:51.939Z,22.47
2023-04-15T14:22:18.535Z,22.18
2023-04-15T14:24:49.999Z,22.55
2023-04-15T14:27:16.597Z,22.67
2023-04-15T14:29:43.219Z,22.97
2023-04-15T14:32:12.063Z,23.08
2023-04-15T14:34:39.769Z,22.81
2023-04-15T14:37:06.520Z,23.17
2023-04-15T14:39:33.199Z,22.66
2023-04-15T14:42:01.189Z,22.86
2023-04-15T14:44:27.819Z,23.38
2023-04-15T14:46:54.634Z,23.56
2023-04-15T14:49:21.292Z,23.33
2023-04-15T14:51:47.972Z,23.15
2023-04-15T14:54:15.085Z,22.93
2023-04-15T14:56:41.666Z,23.37
2023-04-15T14:59:09.707Z,23.89
2023-04-15T15:01:36.517Z,24.27
2023-04-15T15:04:04.128Z,24.28
2023-04-15T15:06:30.989Z,24.64
2023-04-15T15:08:57.728Z,24.91
2023-04-15T15:11:24.355Z,24.03
2023-04-15T15:13:51.013Z,24.76
2023-04-15T15:16:19.089Z,24.87
2023-04-15T15:18:45.687Z,25.01
2023-04-15T15:21:13.353Z,24.95
2023-04-15T15:23:39.919Z,24.11
2023-04-15T15:26:06.584Z,24.02
2023-04-15T15:28:37.491Z,24.37
2023-04-15T15:31:04.116Z,24.45
2023-04-15T15:33:32.275Z,24.22
2023-04-15T15:35:59.042Z,23.52
2023-04-15T15:38:25.672Z,23.18
2023-04-15T15:40:52.279Z,23.21
2023-04-15T15:43:19.006Z,23.03
2023-04-15T15:45:45.693Z,22.93
2023-04-15T15:48:12.286Z,22.78
2023-04-15T15:50:40.383Z,22.83
2023-04-15T15:53:06.968Z,22.41
2023-04-15T15:55:33.807Z,22.36
2023-04-15T15:58:00.683Z,22.75
2023-04-15T16:00:27.277Z,23.10
2023-04-15T16:03:06.852Z,22.99
2023-04-15T16:05:34.294Z,23.20
2023-04-15T16:08:02.353Z,23.04
2023-04-15T16:10:29.059Z,23.22
2023-04-15T16:12:57.754Z,22.59
2023-04-15T16:15:25.969Z,22.50
2023-04-15T16:17:52.961Z,22.50
2023-04-15T16:20:19.631Z,22.70
2023-04-15T16:22:46.294Z,23.16
2023-04-15T16:25:14.309Z,23.10
2023-04-15T16:27:57.085Z,23.46
2023-04-15T16:30:26.153Z,23.62
2023-04-15T16:32:53.163Z,23.53
2023-04-15T16:35:20.030Z,23.10
2023-04-15T16:37:46.885Z,22.85
2023-04-15T16:40:15.147Z,21.91
2023-04-15T16:42:41.909Z,21.98
2023-04-15T16:45:09.444Z,22.29
2023-04-15T16:47:36.186Z,22.45
2023-04-15T16:50:03.389Z,22.23
2023-04-15T16:52:30.259Z,22.19
2023-04-15T16:54:56.936Z,22.21
2023-04-15T16:57:25.197Z,22.52
2023-04-15T16:59:59.360Z,22.75
2023-04-15T17:02:26.329Z,22.45
2023-04-15T17:04:53.164Z,22.60
2023-04-15T17:07:20.871Z,21.99
2023-04-15T17:09:47.581Z,21.73
2023-04-15T17:12:14.576Z,21.20
2023-04-15T17:14:50.010Z,21.18
2023-04-15T17:17:16.796Z,21.20
2023-04-15T17:19:43.574Z,21.32
2023-04-15T17:22:10.979Z,21.34
2023-04-15T17:24:37.683Z,21.36
2023-04-15T17:27:04.506Z,21.44
2023-04-15T17:29:31.249Z,21.27
2023-04-15T17:32:00.246Z,21.34
2023-04-15T17:34:28.120Z,20.82
2023-04-15T17:37:15.620Z,20.47
2023-04-15T17:39:42.276Z,20.50
2023-04-15T17:42:10.058Z,20.33
2023-04-15T17:44:36.654Z,20.04
2023-04-15T17:47:04.740Z,19.90
2023-04-15T17:49:31.428Z,19.70
2023-04-15T17:52:37.687Z,19.76
2023-04-15T17:55:04.935Z,19.96
2023-04-15T17:57:31.650Z,19.70
2023-04-15T17:59:58.544Z,19.52
2023-04-15T18:02:25.325Z,19.58
2023-04-15T18:04:52.087Z,19.55
2023-04-15T18:07:18.842Z,19.58
2023-04-15T18:09:46.907Z,19.51
2023-04-15T18:12:13.513Z,19.42
2023-04-15T18:14:40.131Z,19.31
2023-04-15T18:17:07.309Z,19.22
2023-04-15T18:19:34.262Z,19.25
2023-04-15T18:22:01.036Z,18.99
2023-04-15T18:24:27.807Z,19.01
2023-04-15T18:26:55.843Z,19.02
2023-04-15T18:29:22.549Z,18.88
2023-04-15T18:31:50.190Z,18.93
2023-04-15T18:34:16.886Z,18.94
2023-04-15T18:36:43.601Z,18.93
2023-04-15T18:39:10.318Z,18.91
2023-04-15T18:41:36.923Z,18.61
2023-04-15T18:44:04.961Z,18.62
2023-04-15T18:46:31.592Z,18.59
2023-04-15T18:48:58.224Z,18.58
2023-04-15T18:51:24.911Z,18.41
2023-04-15T18:53:51.609Z,18.51
2023-04-15T18:56:18.225Z,18.61
2023-04-15T18:59:21.254Z,18.55
2023-04-15T19:01:32.905Z,18.54
2023-04-15T19:03:59.673Z,18.47
2023-04-15T19:06:26.571Z,18.30
2023-04-15T19:08:53.189Z,18.16
2023-04-15T19:11:19.848Z,18.04
2023-04-15T19:13:46.478Z,18.10
2023-04-15T19:16:13.372Z,17.82
2023-04-15T19:18:41.394Z,17.82
2023-04-15T19:21:08.170Z,17.97
2023-04-15T19:23:34.861Z,17.83
2023-04-15T19:26:01.584Z,17.75
2023-04-15T19:28:28.269Z,17.74
2023-04-15T19:30:55.114Z,17.68
2023-04-15T19:33:21.865Z,17.66
2023-04-15T19:35:49.919Z,17.61
2023-04-15T19:38:16.827Z,17.51
2023-04-15T19:40:43.512Z,17.43
2023-04-15T19:43:10.115Z,17.55
2023-04-15T19:45:36.898Z,17.69
2023-04-15T19:48:04.278Z,17.64
2023-04-15T19:50:31.957Z,17.65
2023-04-15T19:53:00.001Z,17.58
2023-04-15T19:55:27.598Z,17.65
2023-04-15T19:57:54.167Z,17.62
2023-04-15T20:00:21.192Z,17.54
2023-04-15T20:02:47.997Z,17.51
2023-04-15T20:05:14.816Z,17.66
2023-04-15T20:07:41.602Z,17.51
2023-04-15T20:10:12.470Z,17.45
2023-04-15T20:12:50.746Z,17.47
2023-04-15T20:15:19.906Z,17.43
2023-04-15T20:17:46.675Z,17.35
2023-04-15T20:20:13.522Z,17.32
2023-04-15T20:22:40.168Z,17.37
2023-04-15T20:25:09.119Z,17.26
2023-04-15T20:27:35.746Z,17.22
2023-04-15T20:30:02.583Z,17.26
2023-04-15T20:32:29.156Z,17.23
2023-04-15T20:34:55.821Z,17.30
2023-04-15T20:37:22.631Z,17.38
2023-04-15T20:39:49.319Z,17.46
2023-04-15T20:42:18.510Z,17.50
2023-04-15T20:44:45.231Z,17.59
2023-04-15T20:47:11.848Z,17.60
2023-04-15T20:49:40.005Z,17.53
2023-04-15T20:52:07.557Z,17.38
2023-04-15T20:54:34.319Z,17.36
2023-04-15T20:57:01.184Z,17.31
2023-04-15T20:59:29.208Z,17.33
2023-04-15T21:01:56.011Z,17.25
2023-04-15T21:04:22.689Z,17.14
2023-04-15T21:06:49.255Z,17.26
2023-04-15T21:09:15.880Z,17.22
2023-04-15T21:11:59.757Z,17.28
2023-04-15T21:14:29.725Z,17.30
2023-04-15T21:16:56.956Z,17.37
2023-04-15T21:19:23.597Z,17.43
2023-04-15T21:21:50.268Z,17.39
2023-04-15T21:24:17.099Z,17.38
2023-04-15T21:26:43.790Z,17.29
2023-04-15T21:29:11.645Z,17.25
2023-04-15T21:31:42.528Z,17.21
2023-04-15T21:34:10.038Z,17.27
2023-04-15T21:36:37.520Z,17.22
2023-04-15T21:39:05.051Z,17.21
2023-04-15T21:41:32.084Z,17.21
2023-04-15T21:43:58.841Z,17.12
2023-04-15T21:46:33.213Z,17.15
2023-04-15T21:49:03.817Z,17.11
2023-04-15T21:51:30.590Z,17.07
2023-04-15T21:53:57.233Z,17.01
2023-04-15T21:56:23.976Z,17.08
2023-04-15T21:58:50.660Z,17.06
2023-04-15T22:01:17.405Z,17.02
2023-04-15T22:03:44.397Z,17.03
2023-04-15T22:06:12.514Z,17.00
2023-04-15T22:08:52.481Z,16.98
2023-04-15T22:11:22.534Z,16.91
2023-04-15T22:13:49.121Z,16.93
2023-04-15T22:16:15.732Z,16.88
2023-04-15T22:18:42.456Z,16.92
2023-04-15T22:21:09.091Z,16.85
2023-04-15T22:23:37.013Z,16.84
2023-04-15T22:26:04.604Z,16.78
2023-04-15T22:28:31.174Z,16.80
2023-04-15T22:30:57.760Z,16.76
2023-04-15T22:33:24.691Z,16.81
2023-04-15T22:35:51.281Z,16.68
2023-04-15T22:38:17.893Z,16.67
2023-04-15T22:40:47.018Z,16.70
2023-04-15T22:43:13.665Z,16.70
2023-04-15T22:45:40.226Z,16.68
2023-04-15T22:48:06.923Z,16.72
2023-04-15T22:50:33.572Z,16.65
2023-04-15T22:53:01.320Z,16.57
2023-04-15T22:55:28.045Z,16.57
2023-04-15T22:57:56.082Z,16.68
2023-04-15T23:00:22.744Z,16.68
2023-04-15T23:02:49.781Z,16.72
2023-04-15T23:05:16.637Z,16.71
2023-04-15T23:07:43.311Z,16.65
2023-04-15T23:10:10.312Z,16.67
2023-04-15T23:12:37.065Z,16.60
2023-04-15T23:15:06.037Z,16.67
2023-04-15T23:17:32.806Z,16.57
2023-04-15T23:19:59.468Z,16.49
2023-04-15T23:22:26.160Z,16.55
2023-04-15T23:24:52.849Z,16.46
2023-04-15T23:27:19.522Z,16.52
2023-04-15T23:29:46.260Z,16.54
2023-04-15T23:32:14.462Z,16.58
2023-04-15T23:34:41.134Z,16.57
2023-04-15T23:37:07.777Z,16.51
2023-04-15T23:39:35.496Z,16.46
2023-04-15T23:42:02.202Z,16.48
2023-04-15T23:44:28.804Z,16.50
2023-04-15T23:46:55.599Z,16.67
2023-04-15T23:49:23.730Z,16.65
2023-04-15T23:51:50.543Z,16.56
2023-04-15T23:54:17.320Z,16.63
2023-04-15T23:56:43.992Z,16.68
2023-04-15T23:59:10.871Z,16.62
